Friday, November 16, 2018, 1:13 AM GMT
Back to Local

CWSF, Cap Madeleine Meteorological Aeronautical Presentation System

Location: , , Canada Lat: 49.25
Local Time: 1:13 AM GMT ( 1:13 GMT) Lon: -65.333
Time Zone: GMT Elev: 95 ft

Show me the last for .
Show Coded

Time T Td Feel RH Dir Speed Gust Alt SLP Vis Weather Sky Remarks
2018-11-16 00:00 21 11 16 64 190° 3 - - 30.37 0 None
2018-11-15 23:00 24 12 9 60 260° 12 21 - 30.36 0 Peak wind: 27 mph (24 kts) from 250° at 22 min
2018-11-15 22:00 23 13 7 65 260° 16 24 - 30.34 0 Peak wind: 26 mph (23 kts) from 270° at 29 min
2018-11-15 21:00 24 14 7 66 260° 16 25 - 30.34 0 Peak wind: 29 mph (26 kts) from 290° at 26 min
2018-11-15 20:00 24 15 7 65 260° 18 30 - 30.34 0 Peak wind: 32 mph (28 kts) from 240° at 15 min
2018-11-15 19:00 25 15 8 64 270° 20 31 - 30.32 0 Peak wind: 31 mph (27 kts) from 260° at 51 min
2018-11-15 18:00 25 14 7 62 260° 21 32 - 30.32 0 Peak wind: 32 mph (28 kts) from 270° at 52 min
2018-11-15 17:00 24 14 7 64 260° 22 31 - 30.32 0 Peak wind: 39 mph (34 kts) from 270° at 03 min
2018-11-15 16:00 24 14 5 65 270° 24 37 - 30.32 0 Peak wind: 37 mph (33 kts) from 280° at 49 min
2018-11-15 15:00 24 14 6 64 270° 25 36 - 30.32 0 Peak wind: 37 mph (33 kts) from 250° at 40 min
2018-11-15 14:00 24 13 6 64 280° 21 30 - 30.33 0 Peak wind: 36 mph (32 kts) from 300° at 11 min
2018-11-15 13:00 24 14 5 63 280° 23 38 - 30.31 0 Peak wind: 39 mph (34 kts) from 300° at 22 min
2018-11-15 12:00 24 15 5 67 270° 28 41 - 30.27 0 Peak wind: 41 mph (36 kts) from 290° at 53 min
2018-11-15 11:00 25 14 6 63 280° 25 41 - 30.23 0 Peak wind: 42 mph (37 kts) from 280° at 08 min
2018-11-15 10:00 25 14 6 62 270° 29 44 - 30.19 0 Peak wind: 43 mph (38 kts) from 280° at 54 min
2018-11-15 09:00 26 15 8 61 280° 24 43 - 30.16 0 Peak wind: 44 mph (39 kts) from 300° at 31 min
2018-11-15 08:00 27 15 9 61 280° 24 38 - 30.11 0 Peak wind: 47 mph (41 kts) from 300° at 17 min
2018-11-15 07:00 27 16 7 63 290° 30 47 - 30.07 0 Peak wind: 49 mph (43 kts) from 290° at 10 min
2018-11-15 06:00 27 15 6 59 290° 39 54 - 30.03 0 Peak wind: 54 mph (47 kts) from 300° at 58 min
2018-11-15 05:00 26 14 5 60 290° 38 49 - 29.99 0 Peak wind: 54 mph (47 kts) from 300° at 33 min
2018-11-15 04:00 26 14 5 62 300° 44 53 - 29.96 0 Peak wind: 60 mph (53 kts) from 300° at 46 min
2018-11-15 03:00 24 12 2 61 290° 40 54 - 29.94 0 Peak wind: 55 mph (48 kts) from 300° at 28 min
1-hr Precip Total: 0.01"
2018-11-15 02:00 24 15 3 70 290° 26 48 - 29.91 0 Peak wind: 50 mph (44 kts) from 300° at 28 min

Support USWX by starting your Amazon purchase here.